Time;durP1;ratioP1;P1;durP2;ratioP2;P2;SDS_P1;SDS_P2;PMS_P1;PMS_P2;Temp;Humidity;BMP_temperature;BMP_pressure;BME280_temperature;BME280_humidity;BME280_pressure;Samples;Min_cycle;Max_cycle;Signal;HPM_P1;HPM_P2
2023/09/18 00:01:01;;;;;;;12.85;10.63;;;;;;;18.01;100.00;100757.47;1421202;92;22315;-82
2023/09/18 00:03:27;;;;;;;12.85;11.18;;;;;;;18.01;100.00;100749.43;1422002;92;22361;-83
2023/09/18 00:05:54;;;;;;;15.40;10.35;;;;;;;18.03;100.00;100755.41;1423853;92;21419;-83
2023/09/18 00:08:20;;;;;;;14.70;10.68;;;;;;;18.02;100.00;100753.76;1415976;92;21361;-83
2023/09/18 00:10:51;;;;;;;15.78;12.33;;;;;;;18.03;100.00;100755.41;1423551;92;21546;-84
2023/09/18 00:13:17;;;;;;;17.65;11.85;;;;;;;18.02;100.00;100745.72;1417959;92;21523;-82
2023/09/18 00:15:46;;;;;;;18.63;13.13;;;;;;;17.99;100.00;100743.94;1419539;91;21634;-87
2023/09/18 00:18:17;;;;;;;18.62;12.20;;;;;;;17.96;100.00;100747.00;1441345;91;21345;-84
2023/09/18 00:20:46;;;;;;;19.30;12.90;;;;;;;17.93;100.00;100746.03;1438350;91;21346;-84
2023/09/18 00:23:12;;;;;;;15.47;12.17;;;;;;;17.90;100.00;100745.08;1443044;91;21493;-85
2023/09/18 00:25:41;;;;;;;17.32;12.23;;;;;;;17.87;100.00;100747.61;1441177;91;21448;-84
2023/09/18 00:28:07;;;;;;;18.30;11.93;;;;;;;17.83;100.00;100746.31;1435250;91;21575;-84
2023/09/18 00:30:33;;;;;;;13.72;11.22;;;;;;;17.81;100.00;100740.34;1435867;91;21478;-86
2023/09/18 00:32:59;;;;;;;17.10;12.00;;;;;;;17.75;100.00;100741.87;1436929;91;21553;-85
2023/09/18 00:38:49;;;;;;;18.20;12.97;;;;;;;17.69;100.00;100743.11;1412716;92;21442;-82
2023/09/18 00:41:15;;;;;;;17.33;12.03;;;;;;;17.64;100.00;100742.87;1410895;92;21511;-82
2023/09/18 00:43:41;;;;;;;14.93;13.20;;;;;;;17.59;100.00;100734.87;1413910;92;21666;-82
2023/09/18 00:46:08;;;;;;;16.97;13.27;;;;;;;17.52;100.00;100731.30;1414331;92;21427;-82
2023/09/18 00:48:35;;;;;;;15.60;12.57;;;;;;;17.49;100.00;100739.69;1409087;92;22576;-82
2023/09/18 00:51:02;;;;;;;15.77;11.87;;;;;;;17.48;100.00;100731.83;1419090;92;21415;-82
2023/09/18 00:53:29;;;;;;;19.83;13.50;;;;;;;17.46;100.00;100730.67;1408612;92;21606;-82
2023/09/18 00:55:57;;;;;;;16.17;11.60;;;;;;;17.44;100.00;100731.38;1399329;92;21480;-82
2023/09/18 00:58:25;;;;;;;13.90;12.10;;;;;;;17.42;100.00;100737.42;1414646;92;21576;-82
2023/09/18 01:00:51;;;;;;;14.67;10.80;;;;;;;17.44;100.00;100736.73;1412879;92;21356;-82
2023/09/18 01:03:22;;;;;;;12.40;11.20;;;;;;;17.48;100.00;100731.32;1426066;91;21412;-81
2023/09/18 01:05:48;;;;;;;13.53;10.57;;;;;;;17.51;100.00;100723.44;1436319;91;22284;-82
2023/09/18 01:08:15;;;;;;;18.60;11.73;;;;;;;17.55;100.00;100725.56;1446564;91;21501;-83
2023/09/18 01:10:49;;;;;;;17.00;11.83;;;;;;;17.58;100.00;100726.53;1436293;91;22500;-82
2023/09/18 01:13:21;;;;;;;19.37;11.93;;;;;;;17.62;100.00;100727.49;1431542;91;22285;-80
2023/09/18 01:16:08;;;;;;;13.33;11.50;;;;;;;17.62;100.00;100723.48;1434374;91;21515;-80
2023/09/18 01:18:35;;;;;;;12.77;11.53;;;;;;;17.62;100.00;100730.17;1440793;91;21390;-84
2023/09/18 01:21:01;;;;;;;13.67;10.93;;;;;;;17.60;100.00;100730.34;1439033;91;21383;-84
2023/09/18 01:23:27;;;;;;;11.83;10.63;;;;;;;17.60;100.00;100733.84;1439456;91;21515;-84
2023/09/18 01:25:54;;;;;;;11.17;9.07;;;;;;;17.59;100.00;100730.85;1413983;91;21449;-84
2023/09/18 01:28:20;;;;;;;14.30;10.83;;;;;;;17.58;100.00;100723.03;1438137;91;21456;-83
2023/09/18 01:30:47;;;;;;;18.23;10.40;;;;;;;17.56;100.00;100723.20;1443203;91;21523;-84
2023/09/18 01:33:15;;;;;;;17.13;10.03;;;;;;;17.57;100.00;100723.52;1443816;91;21458;-84
2023/09/18 01:35:43;;;;;;;16.87;8.80;;;;;;;17.59;100.00;100719.33;1435556;91;22306;-84
2023/09/18 01:38:11;;;;;;;13.73;10.60;;;;;;;17.57;100.00;100719.50;1440315;91;21323;-84
2023/09/18 01:40:38;;;;;;;15.20;10.03;;;;;;;17.57;100.00;100720.84;1419130;91;21486;-86
2023/09/18 01:43:04;;;;;;;14.50;12.37;;;;;;;17.62;100.00;100726.16;1436874;91;22690;-86
2023/09/18 01:45:30;;;;;;;13.40;11.00;;;;;;;17.62;100.00;100724.81;1440063;91;21441;-86
2023/09/18 01:47:57;;;;;;;12.07;9.27;;;;;;;17.59;100.00;100723.34;1413781;91;21420;-86
2023/09/18 01:50:23;;;;;;;13.77;9.63;;;;;;;17.56;100.00;100721.86;1439018;91;21600;-85
2023/09/18 01:52:50;;;;;;;15.40;10.13;;;;;;;17.53;100.00;100723.58;1435232;91;22219;-86
2023/09/18 01:55:17;;;;;;;11.90;8.83;;;;;;;17.52;100.00;100727.76;1441939;91;22449;-85
2023/09/18 01:57:43;;;;;;;14.57;10.03;;;;;;;17.52;100.00;100728.62;1440985;91;22814;-86
2023/09/18 02:00:11;;;;;;;12.77;8.23;;;;;;;17.52;100.00;100725.08;1429482;91;21485;-85
2023/09/18 02:02:38;;;;;;;14.37;9.33;;;;;;;17.51;100.00;100726.11;1420202;91;21434;-85
2023/09/18 02:05:05;;;;;;;11.77;8.80;;;;;;;17.51;100.00;100728.27;1440292;91;22499;-86
2023/09/18 02:07:32;;;;;;;12.90;10.03;;;;;;;17.49;100.00;100723.64;1432869;91;21382;-86
2023/09/18 02:09:58;;;;;;;20.57;9.63;;;;;;;17.46;100.00;100725.31;1433400;91;22312;-84
2023/09/18 02:12:24;;;;;;;10.20;9.17;;;;;;;17.43;100.00;100729.70;1440977;91;21574;-84
2023/09/18 02:14:51;;;;;;;19.27;10.17;;;;;;;17.40;100.00;100727.40;1437484;91;21374;-84
2023/09/18 02:17:17;;;;;;;11.67;9.60;;;;;;;17.35;100.00;100733.32;1438918;91;21397;-84
2023/09/18 02:19:44;;;;;;;14.20;8.33;;;;;;;17.34;100.00;100734.83;1431051;91;21323;-84
2023/09/18 02:22:10;;;;;;;13.30;9.70;;;;;;;17.31;100.00;100734.69;1440509;91;21603;-84
2023/09/18 02:24:37;;;;;;;15.87;9.70;;;;;;;17.29;100.00;100739.89;1441938;91;21383;-84
2023/09/18 02:27:07;;;;;;;10.27;8.90;;;;;;;17.27;100.00;100739.27;1435391;91;21588;-85
2023/09/18 02:29:33;;;;;;;16.17;10.10;;;;;;;17.27;100.00;100747.30;1438843;91;22242;-84
2023/09/18 02:32:00;;;;;;;12.17;9.67;;;;;;;17.24;100.00;100738.30;1439052;91;21301;-84
2023/09/18 02:34:26;;;;;;;12.97;9.67;;;;;;;17.23;100.00;100739.30;1442420;91;21398;-85
2023/09/18 02:36:52;;;;;;;11.27;8.53;;;;;;;17.21;100.00;100740.01;1437223;91;21464;-84
2023/09/18 02:39:19;;;;;;;11.87;9.87;;;;;;;17.19;100.00;100746.03;1447677;91;21626;-84
2023/09/18 02:41:45;;;;;;;10.33;8.87;;;;;;;17.16;100.00;100743.73;1442976;91;21331;-84
2023/09/18 02:44:12;;;;;;;17.27;9.93;;;;;;;17.13;100.00;100747.59;1438970;91;22256;-86
2023/09/18 02:46:39;;;;;;;12.43;9.57;;;;;;;17.09;100.00;100752.48;1435491;91;21485;-86
2023/09/18 02:49:06;;;;;;;13.40;9.10;;;;;;;17.08;100.00;100745.97;1437389;91;22293;-87
2023/09/18 02:51:34;;;;;;;11.77;9.90;;;;;;;17.04;100.00;100746.84;1439962;91;21382;-86
2023/09/18 02:54:00;;;;;;;13.63;9.37;;;;;;;17.02;100.00;100745.37;1444550;91;21464;-84
2023/09/18 02:56:27;;;;;;;10.40;8.93;;;;;;;17.00;100.00;100748.20;1444938;91;21419;-83
2023/09/18 02:58:53;;;;;;;11.37;8.50;;;;;;;16.98;100.00;100746.24;1446353;91;21545;-83
2023/09/18 03:01:19;;;;;;;22.60;10.53;;;;;;;16.97;100.00;100741.89;1442579;91;22263;-83
2023/09/18 03:03:46;;;;;;;14.00;10.70;;;;;;;16.96;100.00;100742.91;1433452;91;21523;-84
2023/09/18 03:06:13;;;;;;;15.43;9.43;;;;;;;16.96;100.00;100749.59;1437781;89;21464;-85
2023/09/18 03:08:39;;;;;;;21.70;11.30;;;;;;;16.93;100.00;100741.94;1434934;91;21352;-84
2023/09/18 03:11:13;;;;;;;16.07;10.73;;;;;;;16.90;100.00;100748.48;1439711;91;21504;-84
2023/09/18 03:13:46;;;;;;;17.13;9.63;;;;;;;16.89;100.00;100746.83;1438434;91;21353;-85
2023/09/18 03:16:13;;;;;;;12.70;9.77;;;;;;;16.87;100.00;100744.83;1422108;91;21854;-86
2023/09/18 03:18:39;;;;;;;12.93;8.87;;;;;;;16.84;100.00;100745.70;1437707;91;21494;-85
2023/09/18 03:21:05;;;;;;;15.23;9.33;;;;;;;16.81;100.00;100744.73;1439158;91;21633;-86
2023/09/18 03:23:32;;;;;;;12.73;9.00;;;;;;;16.79;100.00;100745.41;1448062;91;22240;-86
2023/09/18 03:25:59;;;;;;;13.20;8.60;;;;;;;16.78;100.00;100743.76;1440745;91;21479;-86
2023/09/18 03:28:26;;;;;;;14.20;9.37;;;;;;;16.77;100.00;100740.23;1430662;91;21562;-85
2023/09/18 03:30:52;;;;;;;11.50;8.90;;;;;;;16.78;100.00;100743.76;1436748;91;21382;-85
2023/09/18 03:33:20;;;;;;;10.43;9.33;;;;;;;16.74;100.00;100741.07;1435102;91;21526;-86
2023/09/18 03:35:50;;;;;;;12.63;9.43;;;;;;;16.72;100.00;100736.44;1439279;91;22344;-85
2023/09/18 03:38:16;;;;;;;13.17;10.73;;;;;;;16.67;100.00;100737.78;1421172;91;21375;-85
2023/09/18 03:40:43;;;;;;;10.33;9.33;;;;;;;16.62;100.00;100744.16;1445178;91;21426;-85
2023/09/18 03:43:11;;;;;;;11.60;8.80;;;;;;;16.59;100.00;100746.38;1440343;91;21412;-86
2023/09/18 03:45:40;;;;;;;12.27;8.87;;;;;;;16.55;100.00;100743.23;1444839;91;22414;-82
2023/09/18 03:48:06;;;;;;;13.93;8.67;;;;;;;16.54;100.00;100748.23;1442829;91;21701;-81
2023/09/18 03:50:34;;;;;;;13.67;9.17;;;;;;;16.51;100.00;100744.59;1438897;91;21626;-83
2023/09/18 03:53:01;;;;;;;15.70;7.27;;;;;;;16.50;100.00;100742.94;1440987;91;21339;-83
2023/09/18 03:55:27;;;;;;;11.17;8.87;;;;;;;16.47;100.00;100745.97;1442227;91;22547;-83
2023/09/18 03:57:53;;;;;;;12.50;9.80;;;;;;;16.46;100.00;100745.65;1443308;91;22116;-83
2023/09/18 04:00:23;;;;;;;12.43;8.80;;;;;;;16.42;100.00;100752.34;1431596;91;22248;-82
2023/09/18 04:02:49;;;;;;;10.70;9.27;;;;;;;16.38;100.00;100745.19;1445065;91;22232;-83
2023/09/18 04:05:15;;;;;;;14.63;9.30;;;;;;;16.35;100.00;100747.39;1415139;91;22456;-83
2023/09/18 04:07:45;;;;;;;16.63;9.90;;;;;;;16.33;100.00;100742.73;1441138;91;21339;-83
2023/09/18 04:10:10;;;;;;;12.03;8.47;;;;;;;16.33;100.00;100750.73;1437749;91;21455;-83
2023/09/18 04:12:36;;;;;;;13.83;10.00;;;;;;;16.34;100.00;100755.06;1402469;91;21449;-83
2023/09/18 04:15:04;;;;;;;11.63;8.57;;;;;;;16.32;100.00;100746.41;1436755;91;22366;-83
2023/09/18 04:17:30;;;;;;;11.70;8.93;;;;;;;16.32;100.00;100750.42;1431964;89;21589;-84
2023/09/18 04:19:56;;;;;;;20.27;8.77;;;;;;;16.32;100.00;100747.24;1439994;91;21382;-83
2023/09/18 04:22:23;;;;;;;11.57;9.10;;;;;;;16.35;100.00;100748.73;1433144;91;21389;-83
2023/09/18 04:24:49;;;;;;;14.40;9.53;;;;;;;16.37;100.00;100752.89;1439253;91;21524;-84
2023/09/18 04:27:15;;;;;;;18.50;10.03;;;;;;;16.37;100.00;100744.02;1437742;91;22276;-85
2023/09/18 04:29:42;;;;;;;15.50;9.47;;;;;;;16.40;100.00;100745.00;1441425;91;22418;-85
2023/09/18 04:32:08;;;;;;;13.20;9.37;;;;;;;16.41;100.00;100749.36;1434338;91;21495;-84
2023/09/18 04:34:35;;;;;;;14.10;9.30;;;;;;;16.43;100.00;100740.66;1442061;91;21390;-85
2023/09/18 04:37:03;;;;;;;11.33;8.67;;;;;;;16.46;100.00;100745.65;1417494;91;21600;-84
2023/09/18 04:39:30;;;;;;;13.47;8.73;;;;;;;16.51;100.00;100741.91;1435367;89;22484;-84
2023/09/18 04:41:56;;;;;;;15.83;8.83;;;;;;;16.57;100.00;100741.23;1443501;91;21389;-85
2023/09/18 04:44:31;;;;;;;11.97;8.33;;;;;;;16.65;100.00;100741.64;1446088;91;21309;-85
2023/09/18 04:46:58;;;;;;;11.67;9.00;;;;;;;16.70;100.00;100742.77;1439367;91;21447;-84
2023/09/18 04:49:25;;;;;;;52.40;8.60;;;;;;;16.81;100.00;100744.73;1438611;91;21516;-85
2023/09/18 04:51:51;;;;;;;20.80;8.80;;;;;;;16.88;100.00;100744.31;1434763;91;21390;-82
2023/09/18 04:54:17;;;;;;;13.73;8.03;;;;;;;16.97;100.00;100748.57;1437589;91;21516;-80
2023/09/18 04:56:44;;;;;;;15.40;9.23;;;;;;;17.04;100.00;100743.34;1442090;91;21518;-82
2023/09/18 04:59:10;;;;;;;13.57;9.77;;;;;;;17.13;100.00;100745.75;1410653;91;21559;-82
2023/09/18 05:01:36;;;;;;;9.87;8.87;;;;;;;17.23;100.00;100749.48;1438098;91;21330;-83
2023/09/18 05:04:02;;;;;;;20.43;10.43;;;;;;;17.30;100.00;100748.27;1439180;91;21430;-85
2023/09/18 05:06:29;;;;;;;10.80;9.63;;;;;;;17.34;100.00;100750.37;1432960;91;22410;-85
2023/09/18 05:08:55;;;;;;;17.00;9.23;;;;;;;17.37;100.00;100747.83;1443633;91;21538;-86
2023/09/18 05:11:22;;;;;;;11.57;8.30;;;;;;;17.41;100.00;100742.45;1419605;91;21658;-85
2023/09/18 05:13:49;;;;;;;14.87;10.23;;;;;;;17.47;100.00;100739.03;1438564;91;21522;-82
2023/09/18 05:16:17;;;;;;;14.50;8.38;;;;;;;17.55;100.00;100742.96;1411898;91;21331;-82
2023/09/18 05:18:43;;;;;;;13.40;9.15;;;;;;;17.60;100.00;100741.87;1435420;91;21547;-82
2023/09/18 05:21:10;;;;;;;13.38;8.88;;;;;;;17.68;100.00;100745.48;1436941;91;21479;-82
2023/09/18 05:23:37;;;;;;;17.85;9.53;;;;;;;17.76;100.00;100744.05;1441043;91;21353;-82
2023/09/18 05:26:03;;;;;;;14.50;9.33;;;;;;;17.83;100.00;100746.31;1413009;91;21353;-83
2023/09/18 05:28:29;;;;;;;41.88;10.45;;;;;;;17.88;100.00;100746.59;1439565;91;21404;-83
2023/09/18 05:30:55;;;;;;;16.42;9.75;;;;;;;17.94;100.00;100746.34;1436548;91;21361;-83
2023/09/18 05:37:22;;;;;;;16.40;8.98;;;;;;;18.00;100.00;100745.08;1436595;91;21368;-80
2023/09/18 05:39:48;;;;;;;12.45;8.98;;;;;;;18.06;100.00;100748.84;1436528;91;21456;-82
2023/09/18 05:42:15;;;;;;;17.60;8.95;;;;;;;18.14;100.00;100750.59;1443229;91;21426;-80
2023/09/18 05:44:41;;;;;;;9.63;8.55;;;;;;;18.20;100.00;100740.45;1428047;91;22365;-80
2023/09/18 05:47:08;;;;;;;14.38;8.68;;;;;;;18.27;100.00;100740.03;1438008;91;21596;-83
2023/09/18 05:49:35;;;;;;;15.85;9.00;;;;;;;18.33;100.00;100737.09;1440928;91;21827;-83
2023/09/18 05:52:02;;;;;;;12.58;9.70;;;;;;;18.34;100.00;100735.55;1437733;91;21353;-82
2023/09/18 05:54:28;;;;;;;15.08;8.60;;;;;;;18.37;100.00;100739.70;1441302;91;21479;-81
2023/09/18 05:56:54;;;;;;;11.18;9.88;;;;;;;18.39;100.00;100733.14;1439163;91;21516;-81
2023/09/18 05:59:20;;;;;;;11.12;9.25;;;;;;;18.40;100.00;100742.83;1415177;91;22293;-81
2023/09/18 06:01:48;;;;;;;21.70;9.53;;;;;;;18.45;100.00;100747.11;1411477;91;21382;-81
2023/09/18 06:04:16;;;;;;;121.40;20.80;;;;;;;18.48;100.00;100746.72;1441734;91;21442;-81
2023/09/18 06:06:43;;;;;;;72.90;15.90;;;;;;;18.54;100.00;100745.64;1415488;91;21588;-81
2023/09/18 06:09:09;;;;;;;35.78;11.88;;;;;;;18.58;100.00;100738.34;1437445;91;22240;-81
2023/09/18 06:11:35;;;;;;;22.17;10.63;;;;;;;18.69;100.00;100731.64;1442442;91;21353;-81
2023/09/18 06:14:03;;;;;;;15.98;8.88;;;;;;;18.81;100.00;100741.36;1434522;91;21478;-83
2023/09/18 06:16:31;;;;;;;13.20;9.13;;;;;;;18.93;100.00;100750.04;1437039;91;21538;-84
2023/09/18 06:18:57;;;;;;;12.78;10.90;;;;;;;19.05;100.00;100746.83;1443095;91;21368;-86
2023/09/18 06:21:23;;;;;;;685.58;91.22;;;;;;;19.13;100.00;100738.60;1440330;91;22285;-82
2023/09/18 06:23:58;;;;;;;402.40;50.28;;;;;;;19.22;100.00;100733.42;1421182;91;22498;-88
2023/09/18 06:26:24;;;;;;;19.17;10.48;;;;;;;19.29;100.00;100728.91;1441071;91;21441;-88
2023/09/18 06:28:52;;;;;;;15.40;10.70;;;;;;;19.33;100.00;100732.88;1440707;91;21559;-89
2023/09/18 06:31:18;;;;;;;13.90;9.90;;;;;;;19.35;100.00;100732.14;1417800;91;21374;-88
2023/09/18 06:33:45;;;;;;;365.57;39.70;;;;;;;19.37;100.00;100735.47;1435718;91;22276;-89
2023/09/18 06:36:16;;;;;;;360.13;46.42;;;;;;;19.39;100.00;100733.42;1441628;91;21331;-92
2023/09/18 06:38:44;;;;;;;123.62;19.85;;;;;;;19.46;100.00;100733.97;1438764;91;21553;-91
2023/09/18 06:41:12;;;;;;;15.03;8.65;;;;;;;19.63;100.00;100736.63;1439153;89;21521;-92
2023/09/18 06:43:39;;;;;;;13.85;9.75;;;;;;;19.84;100.00;100733.84;1417240;91;22247;-91
2023/09/18 06:46:08;;;;;;;18.20;10.28;;;;;;;20.05;100.00;100737.42;1436017;91;21522;-92
2023/09/18 06:48:37;;;;;;;18.75;9.75;;;;;;;20.25;100.00;100735.64;1438907;91;21537;-93
2023/09/18 06:51:06;;;;;;;97.62;16.87;;;;;;;20.41;100.00;100734.94;1444384;91;21578;-93
2023/09/18 06:53:33;;;;;;;14.78;10.08;;;;;;;20.66;100.00;100722.58;1438107;91;21367;-90
2023/09/18 06:55:59;;;;;;;10.70;9.60;;;;;;;20.66;100.00;100722.58;1438120;91;22388;-91
2023/09/18 06:58:26;;;;;;;13.98;8.53;;;;;;;20.81;100.00;100722.89;1437985;91;21397;-90
2023/09/18 07:00:54;;;;;;;15.93;8.70;;;;;;;20.99;100.00;100733.02;1439758;91;21560;-92
2023/09/18 07:03:23;;;;;;;8.60;6.80;;;;;;;21.12;100.00;100741.90;1438684;91;21441;-90
2023/09/18 07:05:49;;;;;;;127.27;19.77;;;;;;;21.28;100.00;100741.14;1438075;91;21552;-90
2023/09/18 07:08:19;;;;;;;87.70;14.47;;;;;;;21.42;100.00;100740.10;1432813;91;21404;-91
2023/09/18 07:10:46;;;;;;;31.85;8.83;;;;;;;21.54;100.00;100738.40;1437862;91;21596;-93
2023/09/18 07:13:13;;;;;;;26.40;7.58;;;;;;;21.58;100.00;100735.61;1436595;91;22371;-94
2023/09/18 07:15:41;;;;;;;14.38;8.18;;;;;;;21.61;100.00;100731.14;1439584;91;21367;-89
2023/09/18 07:18:09;;;;;;;12.28;7.22;;;;;;;21.67;100.00;100739.41;1433462;91;22204;-90
2023/09/18 07:20:36;;;;;;;9.18;7.25;;;;;;;21.74;100.00;100742.89;1431397;91;21604;-88
2023/09/18 07:23:02;;;;;;;11.05;6.42;;;;;;;21.78;100.00;100746.80;1433954;91;22329;-88
2023/09/18 07:25:28;;;;;;;129.60;19.60;;;;;;;21.81;100.00;100750.45;1439464;91;21397;-87
2023/09/18 07:27:57;;;;;;;53.70;10.08;;;;;;;21.85;100.00;100750.31;1437507;91;21435;-89
2023/09/18 07:30:26;;;;;;;9.60;7.47;;;;;;;21.87;100.00;100752.28;1442395;91;21390;-88
2023/09/18 07:32:52;;;;;;;9.90;7.40;;;;;;;21.85;100.00;100753.00;1444011;91;21577;-90
2023/09/18 07:35:19;;;;;;;9.68;6.58;;;;;;;21.84;100.00;100750.84;1451435;91;21587;-91
2023/09/18 07:37:47;;;;;;;22.48;9.00;;;;;;;21.88;100.00;100751.75;1443670;91;21374;-88
2023/09/18 07:40:15;;;;;;;17.82;8.75;;;;;;;21.91;100.00;100754.02;1450195;89;21383;-90
2023/09/18 07:42:43;;;;;;;31.07;9.80;;;;;;;21.90;100.00;100754.55;1451668;91;21353;-90
2023/09/18 07:45:12;;;;;;;16.67;8.08;;;;;;;21.92;100.00;100747.05;1417527;91;21449;-90
2023/09/18 07:47:39;;;;;;;56.63;14.50;;;;;;;22.07;100.00;100751.66;1438427;91;21560;-90
2023/09/18 07:50:07;;;;;;;9.13;6.90;;;;;;;22.09;100.00;100751.42;1439689;91;21582;-91
2023/09/18 07:52:35;;;;;;;71.75;12.80;;;;;;;22.08;100.00;100745.22;1440644;91;22759;-92
2023/09/18 07:55:02;;;;;;;16.93;7.70;;;;;;;22.25;100.00;100744.75;1435276;91;21463;-90
2023/09/18 07:57:32;;;;;;;13.62;8.08;;;;;;;22.46;100.00;100743.56;1441507;91;21502;-90
2023/09/18 07:59:58;;;;;;;16.05;8.10;;;;;;;22.61;100.00;100739.20;1441082;91;21539;-90
2023/09/18 08:02:28;;;;;;;16.00;9.95;;;;;;;22.75;100.00;100743.45;1439083;91;21361;-89
2023/09/18 08:04:55;;;;;;;9.00;7.40;;;;;;;22.94;100.00;100738.41;1440531;91;21405;-91
2023/09/18 08:07:28;;;;;;;10.38;6.55;;;;;;;23.09;100.00;100742.13;1418470;91;21463;-91
2023/09/18 08:09:54;;;;;;;8.43;6.25;;;;;;;23.22;100.00;100743.89;1439110;91;21494;-91
2023/09/18 08:12:24;;;;;;;9.78;6.12;;;;;;;23.32;100.00;100748.77;1438922;91;21380;-91
2023/09/18 08:14:53;;;;;;;8.60;6.00;;;;;;;23.45;100.00;100736.98;1420491;91;21615;-91
2023/09/18 08:17:19;;;;;;;16.75;7.67;;;;;;;23.59;100.00;100735.28;1436306;89;21368;-88
2023/09/18 08:19:47;;;;;;;11.78;6.05;;;;;;;23.65;100.00;100725.44;1438995;89;22929;-92
2023/09/18 08:22:19;;;;;;;11.33;6.22;;;;;;;23.60;100.00;100727.46;1434414;91;21586;-91
2023/09/18 08:24:48;;;;;;;;;;;;;;;23.56;100.00;100719.52;1417877;91;21581;-90
2023/09/18 08:27:17;;;;;;;9.63;5.92;;;;;;;23.55;100.00;100716.50;1437126;89;20438;-91
2023/09/18 08:29:49;;;;;;;219.03;32.30;;;;;;;23.62;100.00;100714.56;1439917;91;21383;-91
2023/09/18 08:32:15;;;;;;;317.75;37.58;;;;;;;23.73;100.00;100717.03;1440759;91;21683;-80
2023/09/18 08:34:43;;;;;;;15.93;6.90;;;;;;;23.77;100.00;100708.79;1439503;91;22454;-80
2023/09/18 08:37:09;;;;;;;13.80;6.15;;;;;;;23.91;100.00;100706.74;1416119;91;21390;-81
2023/09/18 08:39:37;;;;;;;9.88;6.90;;;;;;;24.07;100.00;100702.55;1438803;91;21435;-80
2023/09/18 08:42:07;;;;;;;9.18;6.60;;;;;;;24.26;100.00;100706.84;1438064;91;21533;-81
2023/09/18 08:44:35;;;;;;;15.13;6.35;;;;;;;24.37;100.00;100706.59;1403870;91;21470;-81
2023/09/18 08:47:02;;;;;;;8.68;6.28;;;;;;;24.50;100.00;100707.74;1429912;91;21426;-80
2023/09/18 08:49:30;;;;;;;156.37;23.30;;;;;;;24.62;100.00;100706.41;1397722;91;21359;-80
2023/09/18 08:51:57;;;;;;;17.85;7.15;;;;;;;24.71;100.00;100700.94;1425940;91;21456;-79
2023/09/18 08:54:24;;;;;;;12.05;7.83;;;;;;;24.81;100.00;100703.61;1426903;91;21375;-80
2023/09/18 08:56:54;;;;;;;10.00;6.35;;;;;;;24.90;100.00;100703.55;1425208;91;21345;-78
2023/09/18 08:59:22;;;;;;;11.22;6.50;;;;;;;25.00;100.00;100705.12;1427292;91;21389;-81
2023/09/18 09:01:48;;;;;;;13.35;5.97;;;;;;;25.09;100.00;100703.72;1424311;91;21485;-81
2023/09/18 09:04:15;;;;;;;8.05;5.80;;;;;;;25.20;100.00;100698.86;1426986;91;21449;-80
2023/09/18 09:06:41;;;;;;;12.18;5.55;;;;;;;25.32;100.00;100696.12;1405397;91;21426;-80
2023/09/18 09:09:07;;;;;;;7.20;5.58;;;;;;;25.42;100.00;100696.32;1404510;91;21471;-81
2023/09/18 09:11:34;;;;;;;16.97;6.25;;;;;;;25.50;100.00;100692.96;1426705;91;21382;-80
2023/09/18 09:14:18;;;;;;;7.17;5.67;;;;;;;25.55;100.00;100692.53;1427805;91;21390;-80
2023/09/18 09:16:52;;;;;;;8.70;4.95;;;;;;;25.65;100.00;100694.08;1426504;91;21623;-80
2023/09/18 09:19:19;;;;;;;13.85;6.08;;;;;;;25.68;100.00;100685.17;1425609;91;21405;-80
2023/09/18 09:21:46;;;;;;;8.93;5.58;;;;;;;25.70;100.00;100684.41;1431033;91;22248;-80
2023/09/18 09:24:13;;;;;;;6.75;4.70;;;;;;;25.74;100.00;100685.56;1426077;91;22249;-80
2023/09/18 09:26:42;;;;;;;7.60;5.28;;;;;;;25.78;100.00;100688.06;1426472;91;21433;-80
2023/09/18 09:29:18;;;;;;;7.60;5.65;;;;;;;25.87;100.00;100689.38;1424247;91;22285;-81
2023/09/18 09:31:46;;;;;;;9.35;5.22;;;;;;;25.90;100.00;100686.19;1424575;91;22336;-80
2023/09/18 09:34:14;;;;;;;7.50;5.12;;;;;;;25.99;100.00;100680.66;1417631;91;21545;-80
2023/09/18 09:36:54;;;;;;;8.60;5.35;;;;;;;26.11;100.00;100689.54;1426437;91;21433;-80
2023/09/18 09:39:26;;;;;;;11.53;5.37;;;;;;;26.20;100.00;100690.50;1364740;91;21508;-81
2023/09/18 09:41:50;;;;;;;11.83;5.65;;;;;;;26.27;100.00;100683.05;1504424;91;21316;-81
2023/09/18 09:44:16;;;;;;;7.37;5.22;;;;;;;26.29;100.00;100681.70;1336207;93;22109;-81
2023/09/18 09:46:51;;;;;;;6.87;4.70;;;;;;;26.37;100.00;100685.91;1355432;91;21487;-82
2023/09/18 09:49:19;;;;;;;9.98;5.78;;;;;;;26.44;100.00;100677.09;1353650;91;21480;-82
2023/09/18 09:51:46;;;;;;;8.55;5.78;;;;;;;26.56;100.00;100672.96;1352737;91;21431;-80
2023/09/18 09:54:13;;;;;;;7.72;5.05;;;;;;;26.66;100.00;100668.22;1355531;91;21339;-81
2023/09/18 09:56:47;;;;;;;6.00;4.70;;;;;;;26.72;100.00;100661.25;1354828;91;21347;-79
2023/09/18 09:59:15;;;;;;;6.37;4.33;;;;;;;26.79;100.00;100659.73;1495126;91;21413;-81
2023/09/18 10:01:44;;;;;;;7.12;5.60;;;;;;;26.85;100.00;100660.09;1429156;91;22247;-80
2023/09/18 10:04:17;;;;;;;6.10;5.03;;;;;;;26.93;100.00;100660.17;1504624;91;22293;-80
2023/09/18 10:06:50;;;;;;;9.35;4.80;;;;;;;26.98;100.00;100646.13;1375171;91;22403;-80
2023/09/18 10:09:17;;;;;;;8.18;4.67;;;;;;;27.10;100.00;100651.98;1425320;91;21456;-81
2023/09/18 10:11:47;;;;;;;7.40;4.83;;;;;;;27.15;100.00;100651.55;1402579;91;21397;-80
2023/09/18 10:14:20;;;;;;;10.38;4.40;;;;;;;27.18;100.00;100651.59;1405710;91;22352;-80
2023/09/18 10:16:51;;;;;;;12.90;5.15;;;;;;;27.23;100.00;100648.94;1426547;91;21559;-80
2023/09/18 10:19:45;;;;;;;5.78;4.92;;;;;;;27.21;100.00;100641.03;1358190;91;21538;-80
2023/09/18 10:22:22;;;;;;;9.03;4.40;;;;;;;27.31;100.00;100640.34;1505690;91;21184;-81
2023/09/18 10:24:53;;;;;;;7.80;5.03;;;;;;;27.45;100.00;100635.35;1441308;91;23264;-81
2023/09/18 10:27:21;;;;;;;5.40;3.77;;;;;;;27.51;100.00;100626.72;1425842;91;21492;-81
2023/09/18 10:29:51;;;;;;;8.00;4.80;;;;;;;27.54;100.00;100625.66;1427530;91;21449;-82
2023/09/18 10:32:20;;;;;;;9.43;4.65;;;;;;;27.63;100.00;100620.05;1424876;91;21405;-82
2023/09/18 10:34:48;;;;;;;8.03;4.80;;;;;;;27.74;100.00;100614.72;1352520;91;21258;-82
2023/09/18 10:37:15;;;;;;;4.55;3.67;;;;;;;27.78;99.10;100612.57;1353492;91;21476;-82
2023/09/18 10:39:44;;;;;;;8.20;4.62;;;;;;;27.78;98.54;100608.49;1346086;91;22234;-82
2023/09/18 10:42:12;;;;;;;7.30;4.60;;;;;;;27.71;99.70;100609.25;1505939;91;22174;-82
2023/09/18 10:44:42;;;;;;;9.80;4.37;;;;;;;27.70;98.71;100599.98;1354516;91;21301;-81
2023/09/18 10:47:11;;;;;;;8.98;4.28;;;;;;;27.70;85.56;100595.91;1352325;91;21352;-82
2023/09/18 10:49:38;;;;;;;6.40;4.72;;;;;;;27.74;85.20;100589.70;1352260;91;21280;-82
2023/09/18 10:52:05;;;;;;;5.15;3.55;;;;;;;27.76;83.55;100586.16;1350733;91;21250;-82
2023/09/18 10:54:33;;;;;;;7.70;4.20;;;;;;;27.86;85.29;100590.92;1350756;91;21323;-81
2023/09/18 10:56:59;;;;;;;6.42;4.15;;;;;;;27.92;84.20;100590.44;1354830;91;21272;-82
2023/09/18 10:59:27;;;;;;;7.70;4.20;;;;;;;28.06;85.53;100590.28;1355498;91;22130;-81
2023/09/18 11:01:53;;;;;;;6.00;4.12;;;;;;;28.24;84.80;100594.50;1390318;91;21397;-81
2023/09/18 11:04:20;;;;;;;11.20;4.17;;;;;;;28.26;84.61;100597.23;1426691;91;21390;-83
2023/09/18 11:07:03;;;;;;;11.00;4.85;;;;;;;28.35;79.25;100591.58;1428286;91;21478;-81
2023/09/18 11:09:33;;;;;;;7.62;5.20;;;;;;;28.33;79.07;100589.66;1426025;91;21801;-82
2023/09/18 11:12:04;;;;;;;9.88;4.50;;;;;;;28.34;79.53;100582.34;1427215;91;21511;-82
2023/09/18 11:14:52;;;;;;;12.18;4.47;;;;;;;28.48;78.79;100580.80;1429039;91;22234;-81
2023/09/18 11:17:34;;;;;;;7.55;4.37;;;;;;;28.46;78.86;100583.53;1358514;91;21286;-82
2023/09/18 11:20:15;;;;;;;4.42;3.50;;;;;;;28.43;78.34;100579.42;1505676;91;22162;-82